LGTSLGKR

Guest
Details From LGTS - Thessalonik Makedonia
To LGKR - IOANNIS KAPODISTRIAS INTL
Flight Number -
Tags generated
Created
Modified
Stats Distance 151 nm / 280 km
Max Altitude 1,500 ft / 457 m
Waypoints 3
Social Downloads 1
Likes 0
Share VATSIM

Download

Looking for another format? Having issues loading an existing format? Contact us
Advertisement - Login to hide

Notes

Basic altitude profile: - Ascent Rate: 2000ft/min - Ascent Speed: 250kts - Cruise Altitude: 1500ft - Cruise Speed: 420kts - Descent Rate: 1500ft/min - Descent Speed: 220kts

Route

LGTS KOZ LGKR

ID Type Via Altitude Latitude Longitude Leg Dist Tot Dist Heading (true) Name
O LGTS APT - 0 ft / 0 m 40.51952˚ 22.97202˚ - 0 nm - Thessalonik Makedonia
KOZ VOR - 1,500 ft / 457 m 40.28513˚ 21.84044˚ 53 nm 53 nm 255° / 254° KOZANI VOR-DME
O LGKR APT - 0 ft / 0 m 39.60178˚ 19.91191˚ 97 nm 151 nm 246° / 245° IOANNIS KAPODISTRIAS INTL

Altitude Profile

Advertisement - Login to hide

LGTS

Details ICAO LGTS (SKG)
Name Thessalonik Makedonia
Region Greece
Timezone Europe/Athens (UTC+2.0)
Stats Elevation 22 ft / 7 m (AMSL)
Location 40.519522° 22.972017°
Runways 2
Magnetic Variation 4.623° E

METAR

LGTS 161320Z 10010KT 9999 FEW025 BKN035 18/06 Q1006 NOSIG

Decode

TAF

TAF LGTS 161100Z 1612/1712 14015KT 9999 SCT030 TEMPO 1612/1618 14015G25KT PROB40 TEMPO 1615/1712 7000 RA FEW010 BKN025 PROB30 TEMPO 1618/1622 4000 TSRA SCT010 FEW015CB BKN025 BECMG 1619/1621 VRB03KT BECMG 1706/1708 34015KT

Decode

Departure Runways

ID Width Length Bearing (true) Bearing (mag) Surface Threshold Offset Overrun Length
10 164 ft / 50 m 7,990 ft / 2,435 m 103.95° 99.33° Asphalt 0 ft / 0 m 150 ft / 46 m
16 197 ft / 60 m 7,927 ft / 2,416 m 166.35° 161.73° Asphalt 0 ft / 0 m 200 ft / 61 m
28 164 ft / 50 m 7,990 ft / 2,435 m 283.97° 279.35° Asphalt 0 ft / 0 m 150 ft / 46 m
34 197 ft / 60 m 7,927 ft / 2,416 m 346.36° 341.74° Asphalt 0 ft / 0 m 200 ft / 61 m

LGKR

Details ICAO LGKR (CFU)
Name IOANNIS KAPODISTRIAS INTL
Region Greece
Timezone Europe/Athens (UTC+2.0)
Stats Elevation 6 ft / 2 m (AMSL)
Location 39.601779° 19.911908°
Runways 1
Magnetic Variation 4.098° E

METAR

LGKR 161320Z 24007G17KT 5000 -RA SCT008 SCT016TCU BKN025 OVC070 15/13 Q1008 RERA TEMPO RA

Decode

TAF

TAF LGKR 161100Z 1612/1712 18018G28KT 9999 FEW010 SCT016 BKN020 PROB40 TEMPO 1612/1704 5000 RA PROB40 TEMPO 1612/1624 4000 TSRA SCT010 FEW018CB BKN020 OVC080 BECMG 1616/1618 19012KT BECMG 1702/1704 31012KT

Decode

Destination Runways

ID Width Length Bearing (true) Bearing (mag) Surface Threshold Offset Overrun Length
17 148 ft / 45 m 7,815 ft / 2,382 m 168.81° 164.71° Asphalt 1,348 ft / 411 m 0 ft / 0 m
35 148 ft / 45 m 7,815 ft / 2,382 m 348.81° 344.71° Asphalt 213 ft / 65 m 0 ft / 0 m

Popular Alternatives